Terminal Aerodrome Forecast
Issued by NWS Wilmington, OH

Home | Current Version | Previous Version | Text Only | Print | Product List | Glossary On
Versions: 1 2 3 4 5 6 7 8 9 10 11 12 13 14 15 16
000
FTUS41 KILN 162000 AAA
TAFCMH
TAF AMD
KCMH 162016Z 1620/1718 VRB03KT P6SM BKN040
     FM170000 VRB03KT P6SM SCT040
     FM170800 VRB03KT 4SM BR SKC
     FM171300 VRB03KT P6SM SCT015
     FM171500 23005KT P6SM BKN035=

USA.gov is the U.S. government's official web portal to all federal, state and local government web resources and services.